This is the latest recevied weather packets stored in our database for station/object KC9NBZ. If no packets are shown the sender has not sent any weather packets the latest 10 day(s).
| Time | Temp. | Humidity | Pressure | Rain* | Wind** | Luminosity | Snow |
|---|---|---|---|---|---|---|---|
| 1777289723 | 11.11° C | 89% | 1010.3 hPa | 0 mm | - | 10 W/m² | - |
| 1777284321 | 10.56° C | 89% | 1010.7 hPa | 0 mm | - | 0 W/m² | - |
| 1777280119 | 10.56° C | 88% | 1010.6 hPa | 0 mm | - | 0 W/m² | - |
| 1777278919 | 10.56° C | 88% | 1011.5 hPa | 0 mm | - | 0 W/m² | - |
| 1777277142 | 10.56° C | 88% | 1012.2 hPa | 0 mm | - | 0 W/m² | - |
| 1777275918 | 10.56° C | 87% | 1012.6 hPa | 0 mm | - | 0 W/m² | - |
| 1777271720 | 10.56° C | 87% | 1013.6 hPa | 0 mm | - | 0 W/m² | - |
| 1777270521 | 11.11° C | 86% | 1013.7 hPa | 0 mm | - | 0 W/m² | - |
| 1777269321 | 11.11° C | 86% | 1014 hPa | 0 mm | - | 0 W/m² | - |
| 1777264541 | 11.11° C | 84% | 1014.4 hPa | 0 mm | - | 0 W/m² | - |
| 1777262119 | 11.11° C | 84% | 1014.7 hPa | 0 mm | - | 0 W/m² | - |
| 1777254921 | 12.78° C | 74% | 1014.9 hPa | 0 mm | - | 0 W/m² | - |
| 1777251919 | 13.89° C | 71% | 1015.1 hPa | 0 mm | - | 1 W/m² | - |
| 1777245320 | 17.78° C | 61% | 1014.8 hPa | 0 mm | - | 175 W/m² | - |
| 1777244122 | 18.89° C | 60% | 1014.9 hPa | 0 mm | - | 180 W/m² | - |
| 1777241141 | 19.44° C | 57% | 1014.8 hPa | 0 mm | - | 380 W/m² | - |
| 1777240520 | 20° C | 54% | 1014.6 hPa | 0 mm | - | 437 W/m² | - |
| 1777238120 | 19.44° C | 56% | 1014.7 hPa | 0 mm | - | 573 W/m² | - |
| 1777237540 | 19.44° C | 54% | 1014.9 hPa | 0 mm | - | 503 W/m² | - |
| 1777233320 | 18.89° C | 56% | 1016.1 hPa | 0 mm | - | 701 W/m² | - |
| 1777232719 | 18.33° C | 58% | 1016.4 hPa | 0 mm | - | 707 W/m² | - |
| 1777221919 | 15.56° C | 71% | 1018.3 hPa | 0 mm | - | 654 W/m² | - |
| 1777212318 | 10.56° C | 87% | 1018.4 hPa | 0 mm | - | 532 W/m² | - |
| 1777211118 | 10.56° C | 89% | 1018.6 hPa | 0 mm | - | 393 W/m² | - |
| 1777210520 | 10° C | 90% | 1018.7 hPa | 0 mm | - | 373 W/m² | - |
* Rain latest hour (hover to see other rain measurements)
** Current wind speed in m/s (hover to see current wind gust speed)